createdAt,value
2022-11-27T00:01:31.194Z,98169.94
2022-11-27T00:06:28.313Z,98164.06
2022-11-27T00:11:25.876Z,98173.19
2022-11-27T00:16:20.986Z,98169.63
2022-11-27T00:21:19.119Z,98162.75
2022-11-27T00:26:13.484Z,98162.22
2022-11-27T00:31:09.607Z,98157.44
2022-11-27T00:36:04.340Z,98157.94
2022-11-27T00:41:07.057Z,98158.44
2022-11-27T00:46:00.548Z,98161.78
2022-11-27T00:50:54.049Z,98151.50
2022-11-27T00:55:47.889Z,98151.66
2022-11-27T01:00:42.801Z,98132.22
2022-11-27T01:05:38.317Z,98120.13
2022-11-27T01:10:32.116Z,98111.38
2022-11-27T01:15:25.474Z,98103.34
2022-11-27T01:20:20.448Z,98103.47
2022-11-27T01:25:13.729Z,98097.16
2022-11-27T01:30:09.156Z,98094.28
2022-11-27T01:35:02.460Z,98095.50
2022-11-27T01:39:57.124Z,98090.53
2022-11-27T01:44:56.833Z,98096.44
2022-11-27T01:49:54.846Z,98089.28
2022-11-27T01:55:00.809Z,98086.38
2022-11-27T01:59:59.043Z,98082.13
2022-11-27T02:04:52.538Z,98083.00
2022-11-27T02:09:46.117Z,98074.56
2022-11-27T02:14:50.486Z,98060.13
2022-11-27T02:20:12.032Z,98046.69
2022-11-27T02:25:22.811Z,98039.75
2022-11-27T02:30:22.034Z,98035.31
2022-11-27T02:35:24.569Z,98038.81
2022-11-27T02:40:28.523Z,98042.13
2022-11-27T02:45:30.308Z,98041.97
2022-11-27T02:50:28.744Z,98033.16
2022-11-27T02:55:29.493Z,98028.34
2022-11-27T03:00:24.635Z,98032.00
2022-11-27T03:05:25.417Z,98034.34
2022-11-27T03:10:25.270Z,98036.47
2022-11-27T03:15:19.055Z,98043.22
2022-11-27T03:20:22.733Z,98024.38
2022-11-27T03:25:17.325Z,98025.22
2022-11-27T03:30:15.007Z,98027.41
2022-11-27T03:35:15.819Z,98019.03
2022-11-27T03:40:11.926Z,98011.75
2022-11-27T03:45:15.871Z,98010.09
2022-11-27T03:50:28.336Z,98008.19
2022-11-27T03:55:32.999Z,98004.88
2022-11-27T04:00:28.802Z,98005.84
2022-11-27T04:05:23.958Z,98000.53
2022-11-27T04:10:17.448Z,98006.81
2022-11-27T04:15:12.555Z,97995.69
2022-11-27T04:20:08.075Z,98002.59
2022-11-27T04:25:02.814Z,97997.19
2022-11-27T04:29:56.241Z,97995.78
2022-11-27T04:34:49.576Z,98005.06
2022-11-27T04:39:42.962Z,97998.03
2022-11-27T04:44:37.957Z,97988.22
2022-11-27T04:49:31.651Z,97985.34
2022-11-27T04:54:25.221Z,97993.09
2022-11-27T04:59:18.601Z,97987.59
2022-11-27T05:04:13.576Z,97995.50
2022-11-27T05:09:06.946Z,97991.03
2022-11-27T05:14:16.940Z,97989.41
2022-11-27T05:19:14.163Z,97994.31
2022-11-27T05:24:08.350Z,97988.50
2022-11-27T05:29:02.060Z,97998.53
2022-11-27T05:33:55.919Z,98001.81
2022-11-27T05:38:50.678Z,97998.19
2022-11-27T05:43:44.112Z,97987.66
2022-11-27T05:48:38.391Z,97987.66
2022-11-27T05:53:32.287Z,97995.25
2022-11-27T05:58:27.175Z,97996.91
2022-11-27T06:03:20.847Z,97990.03
2022-11-27T06:08:14.232Z,97982.53
2022-11-27T06:13:07.942Z,97983.50
2022-11-27T06:18:03.751Z,97973.72
2022-11-27T06:22:57.765Z,97967.88
2022-11-27T06:27:51.568Z,97985.31
2022-11-27T06:32:44.852Z,97983.25
2022-11-27T06:37:39.605Z,97984.81
2022-11-27T06:42:33.050Z,97985.75
2022-11-27T06:47:26.538Z,98000.84
2022-11-27T06:52:21.759Z,98000.44
2022-11-27T06:57:16.537Z,98009.91
2022-11-27T07:02:15.671Z,98004.84
2022-11-27T07:07:09.048Z,98005.28
2022-11-27T07:12:02.466Z,98001.06
2022-11-27T07:16:57.277Z,97993.28
2022-11-27T07:21:50.766Z,97987.75
2022-11-27T07:26:44.208Z,97967.78
2022-11-27T07:31:37.603Z,97964.22
2022-11-27T07:36:32.591Z,97960.31
2022-11-27T07:41:32.177Z,97965.75
2022-11-27T07:46:27.384Z,97983.03
2022-11-27T07:51:22.835Z,97979.13
2022-11-27T07:56:17.818Z,97987.59
2022-11-27T08:01:13.948Z,97983.06
2022-11-27T08:06:15.738Z,97983.06
2022-11-27T08:11:19.380Z,97974.94
2022-11-27T08:16:13.092Z,97971.84
2022-11-27T08:21:07.036Z,97960.63
2022-11-27T08:26:00.332Z,97965.72
2022-11-27T08:30:59.741Z,97933.75
2022-11-27T08:35:53.291Z,97918.69
2022-11-27T08:40:46.907Z,97931.56
2022-11-27T08:45:41.184Z,97949.91
2022-11-27T08:50:35.913Z,97981.13
2022-11-27T08:55:29.287Z,98006.78
2022-11-27T09:00:27.953Z,97993.13
2022-11-27T09:05:21.702Z,97976.91
2022-11-27T09:10:16.435Z,97953.16
2022-11-27T09:15:11.061Z,97958.91
2022-11-27T09:20:04.793Z,97964.78
2022-11-27T09:24:58.184Z,97970.25
2022-11-27T09:29:53.037Z,97955.63
2022-11-27T09:34:46.376Z,97956.19
2022-11-27T09:39:39.670Z,97957.00
2022-11-27T09:44:40.922Z,97953.72
2022-11-27T09:49:45.130Z,97939.41
2022-11-27T09:54:49.448Z,97935.56
2022-11-27T09:59:51.641Z,97919.38
2022-11-27T10:05:06.251Z,97922.91
2022-11-27T10:10:40.064Z,97926.06
2022-11-27T10:15:43.636Z,97924.22
2022-11-27T10:20:47.323Z,97910.56
2022-11-27T10:25:46.709Z,97905.53
2022-11-27T10:30:55.375Z,97911.84
2022-11-27T10:35:52.160Z,97921.72
2022-11-27T10:40:55.391Z,97906.97
2022-11-27T10:45:54.515Z,97890.88
2022-11-27T10:50:49.809Z,97888.50
2022-11-27T11:00:39.315Z,97878.19
2022-11-27T11:10:54.693Z,97862.97
2022-11-27T11:21:07.111Z,97849.16
2022-11-27T11:26:08.783Z,97835.84
2022-11-27T11:31:09.142Z,97833.25
2022-11-27T11:36:12.444Z,97833.06
2022-11-27T11:41:09.654Z,97822.69
2022-11-27T11:46:22.634Z,97810.47
2022-11-27T11:51:30.806Z,97787.00
2022-11-27T11:56:33.350Z,97772.81
2022-11-27T12:02:06.087Z,97768.53
2022-11-27T12:07:16.257Z,97767.22
2022-11-27T12:12:30.650Z,97775.16
2022-11-27T12:17:45.740Z,97770.78
2022-11-27T12:23:21.051Z,97757.59
2022-11-27T12:28:42.685Z,97744.84
2022-11-27T12:33:56.526Z,97726.22
2022-11-27T12:39:13.527Z,97716.63
2022-11-27T12:44:21.346Z,97714.72
2022-11-27T12:49:24.197Z,97708.00
2022-11-27T12:54:26.743Z,97700.94
2022-11-27T12:59:33.255Z,97698.88
2022-11-27T13:04:36.981Z,97704.63
2022-11-27T13:09:43.806Z,97695.25
2022-11-27T13:14:42.804Z,97669.78
2022-11-27T13:19:44.765Z,97674.19
2022-11-27T13:24:38.694Z,97672.47
2022-11-27T13:29:43.284Z,97655.22
2022-11-27T13:34:47.795Z,97645.34
2022-11-27T13:39:43.712Z,97651.03
2022-11-27T13:44:44.341Z,97651.88
2022-11-27T13:49:39.128Z,97628.22
2022-11-27T13:54:39.885Z,97600.16
2022-11-27T13:59:37.984Z,97617.84
2022-11-27T14:04:36.491Z,97605.88
2022-11-27T14:09:42.814Z,97589.22
2022-11-27T14:14:37.411Z,97580.16
2022-11-27T14:19:38.448Z,97583.31
2022-11-27T14:24:44.188Z,97583.19
2022-11-27T14:29:37.898Z,97596.56
2022-11-27T14:34:34.996Z,97591.03
2022-11-27T14:39:35.224Z,97583.13
2022-11-27T14:44:29.272Z,97569.38
2022-11-27T14:49:25.932Z,97566.78
2022-11-27T14:54:26.824Z,97551.94
2022-11-27T14:59:23.354Z,97543.16
2022-11-27T15:04:29.158Z,97521.50
2022-11-27T15:09:43.298Z,97515.47
2022-11-27T15:14:37.421Z,97508.59
2022-11-27T15:19:37.962Z,97497.19
2022-11-27T15:24:36.308Z,97488.41
2022-11-27T15:29:37.845Z,97486.44
2022-11-27T15:34:34.689Z,97500.84
2022-11-27T15:39:37.394Z,97492.25
2022-11-27T15:44:33.683Z,97484.25
2022-11-27T15:49:27.368Z,97458.63
2022-11-27T15:54:20.904Z,97453.84
2022-11-27T15:59:16.764Z,97448.91
2022-11-27T16:04:10.252Z,97442.97
2022-11-27T16:09:03.826Z,97436.44
2022-11-27T16:13:57.846Z,97420.97
2022-11-27T16:18:52.611Z,97412.47
2022-11-27T16:23:46.279Z,97410.28
2022-11-27T16:28:39.682Z,97409.16
2022-11-27T16:33:33.926Z,97402.91
2022-11-27T16:38:28.661Z,97395.28
2022-11-27T16:43:22.261Z,97391.56
2022-11-27T16:48:15.623Z,97383.59
2022-11-27T16:53:08.975Z,97376.88
2022-11-27T16:58:03.743Z,97361.97
2022-11-27T17:02:57.118Z,97371.69
2022-11-27T17:07:50.546Z,97362.25
2022-11-27T17:12:44.001Z,97356.78
2022-11-27T17:17:40.350Z,97348.56
2022-11-27T17:22:33.751Z,97332.97
2022-11-27T17:27:27.121Z,97337.66
2022-11-27T17:32:20.465Z,97323.72
2022-11-27T17:37:15.291Z,97315.75
2022-11-27T17:42:12.942Z,97308.03
2022-11-27T17:47:07.938Z,97301.03
2022-11-27T17:52:06.123Z,97292.38
2022-11-27T17:57:01.450Z,97284.19
2022-11-27T18:01:54.888Z,97296.13
2022-11-27T18:06:48.264Z,97293.63
2022-11-27T18:11:41.600Z,97287.28
2022-11-27T18:16:39.362Z,97297.81
2022-11-27T18:21:33.088Z,97287.28
2022-11-27T18:26:45.329Z,97284.06
2022-11-27T18:31:43.613Z,97276.63
2022-11-27T18:36:37.059Z,97256.03
2022-11-27T18:41:30.661Z,97240.78
2022-11-27T18:46:24.125Z,97235.72
2022-11-27T18:51:22.289Z,97247.94
2022-11-27T18:56:19.654Z,97245.50
2022-11-27T19:01:15.968Z,97232.16
2022-11-27T19:06:11.853Z,97234.34
2022-11-27T19:11:11.135Z,97225.22
2022-11-27T19:16:08.124Z,97214.91
2022-11-27T19:21:01.890Z,97224.38
2022-11-27T19:25:55.763Z,97229.25
2022-11-27T19:30:50.618Z,97219.66
2022-11-27T19:35:44.481Z,97211.19
2022-11-27T19:40:38.946Z,97190.03
2022-11-27T19:45:33.834Z,97183.31
2022-11-27T19:50:29.056Z,97174.81
2022-11-27T19:55:22.936Z,97179.06
2022-11-27T20:00:18.155Z,97167.41
2022-11-27T20:05:12.117Z,97158.69
2022-11-27T20:10:08.609Z,97152.03
2022-11-27T20:15:02.359Z,97132.19
2022-11-27T20:19:56.138Z,97129.38
2022-11-27T20:25:11.615Z,97146.72
2022-11-27T20:30:06.743Z,97141.22
2022-11-27T20:35:00.885Z,97143.66
2022-11-27T20:39:55.119Z,97127.19
2022-11-27T20:44:48.982Z,97122.25
2022-11-27T20:49:44.328Z,97114.84
2022-11-27T20:54:38.050Z,97105.09
2022-11-27T20:59:31.754Z,97114.53
2022-11-27T21:04:27.619Z,97097.13
2022-11-27T21:09:23.012Z,97100.44
2022-11-27T21:14:18.216Z,97098.84
2022-11-27T21:19:17.419Z,97084.22
2022-11-27T21:24:11.450Z,97073.44
2022-11-27T21:29:06.270Z,97070.81
2022-11-27T21:34:03.969Z,97064.72
2022-11-27T21:38:59.518Z,97066.19
2022-11-27T21:43:57.406Z,97075.03
2022-11-27T21:48:56.186Z,97069.31
2022-11-27T21:53:51.962Z,97064.50
2022-11-27T21:58:45.419Z,97064.66
2022-11-27T22:03:42.582Z,97068.38
2022-11-27T22:08:38.203Z,97065.34
2022-11-27T22:13:31.582Z,97071.28
2022-11-27T22:18:24.879Z,97062.66
2022-11-27T22:23:18.228Z,97059.22
2022-11-27T22:28:12.988Z,97046.28
2022-11-27T22:33:06.442Z,97031.31
2022-11-27T22:37:59.749Z,97029.13
2022-11-27T22:42:53.056Z,97021.34
2022-11-27T22:47:47.733Z,97003.84
2022-11-27T22:52:41.085Z,97004.84
2022-11-27T22:57:35.412Z,96995.97
2022-11-27T23:02:28.828Z,96999.03
2022-11-27T23:07:25.282Z,96993.72
2022-11-27T23:12:18.881Z,96983.34
2022-11-27T23:17:12.251Z,96943.00
2022-11-27T23:22:05.639Z,96950.97
2022-11-27T23:27:00.389Z,96976.91
2022-11-27T23:31:53.741Z,96969.75
2022-11-27T23:36:47.136Z,96988.06
2022-11-27T23:41:40.906Z,96960.81
2022-11-27T23:46:35.617Z,96976.22
2022-11-27T23:51:31.268Z,96980.03
2022-11-27T23:56:28.488Z,96964.28
